sensor_id;sensor_type;location;lat;lon;timestamp;pressure;altitude;pressure_sealevel;temperature;humidity
62038;BME280;47991;42.974;12.082;2023-02-26T00:00:22;95987.05;;;10.10;89.87
62038;BME280;47991;42.974;12.082;2023-02-26T00:03:10;95985.27;;;10.08;91.15
62038;BME280;47991;42.974;12.082;2023-02-26T00:05:59;95982.73;;;10.09;90.99
62038;BME280;47991;42.974;12.082;2023-02-26T00:08:27;95977.56;;;10.09;90.51
62038;BME280;47991;42.974;12.082;2023-02-26T00:10:54;95974.41;;;10.09;90.95
62038;BME280;47991;42.974;12.082;2023-02-26T00:13:22;95972.92;;;10.08;92.40
62038;BME280;47991;42.974;12.082;2023-02-26T00:18:58;95969.88;;;10.08;91.44
62038;BME280;47991;42.974;12.082;2023-02-26T00:21:26;95971.55;;;10.10;91.16
62038;BME280;47991;42.974;12.082;2023-02-26T00:23:54;95972.80;;;10.10;90.74
62038;BME280;47991;42.974;12.082;2023-02-26T00:26:23;95969.68;;;10.12;90.66
62038;BME280;47991;42.974;12.082;2023-02-26T00:29:10;95968.94;;;10.13;91.32
62038;BME280;47991;42.974;12.082;2023-02-26T00:31:37;95965.52;;;10.10;91.79
62038;BME280;47991;42.974;12.082;2023-02-26T00:34:04;95961.73;;;10.09;91.72
62038;BME280;47991;42.974;12.082;2023-02-26T00:36:37;95958.08;;;10.07;91.82
62038;BME280;47991;42.974;12.082;2023-02-26T00:42:05;95954.83;;;9.93;92.85
62038;BME280;47991;42.974;12.082;2023-02-26T00:44:51;95951.02;;;9.98;93.28
62038;BME280;47991;42.974;12.082;2023-02-26T00:47:28;95947.91;;;10.00;92.55
62038;BME280;47991;42.974;12.082;2023-02-26T00:50:08;95942.11;;;10.00;92.38
62038;BME280;47991;42.974;12.082;2023-02-26T00:55:29;95934.91;;;9.86;92.60
62038;BME280;47991;42.974;12.082;2023-02-26T01:00:43;95927.56;;;9.88;93.18
62038;BME280;47991;42.974;12.082;2023-02-26T01:03:10;95920.36;;;9.84;92.85
62038;BME280;47991;42.974;12.082;2023-02-26T01:05:38;95919.40;;;9.82;94.04
62038;BME280;47991;42.974;12.082;2023-02-26T01:11:11;95911.85;;;9.84;94.92
62038;BME280;47991;42.974;12.082;2023-02-26T01:13:38;95907.38;;;9.83;94.70
62038;BME280;47991;42.974;12.082;2023-02-26T01:16:27;95901.00;;;9.86;93.46
62038;BME280;47991;42.974;12.082;2023-02-26T01:19:22;95902.33;;;9.88;94.24
62038;BME280;47991;42.974;12.082;2023-02-26T01:21:59;95895.33;;;9.90;94.17
62038;BME280;47991;42.974;12.082;2023-02-26T01:24:47;95891.61;;;9.93;93.50
62038;BME280;47991;42.974;12.082;2023-02-26T01:27:14;95885.80;;;9.97;92.89
62038;BME280;47991;42.974;12.082;2023-02-26T01:32:43;95878.42;;;9.99;93.15
62038;BME280;47991;42.974;12.082;2023-02-26T01:38:16;95869.48;;;9.98;93.73
62038;BME280;47991;42.974;12.082;2023-02-26T01:49:17;95850.81;;;9.97;93.62
62038;BME280;47991;42.974;12.082;2023-02-26T01:51:55;95848.70;;;9.97;93.00
62038;BME280;47991;42.974;12.082;2023-02-26T01:54:29;95843.23;;;9.97;93.08
62038;BME280;47991;42.974;12.082;2023-02-26T01:57:16;95838.40;;;9.95;94.02
62038;BME280;47991;42.974;12.082;2023-02-26T02:00:03;95836.27;;;9.95;92.73
62038;BME280;47991;42.974;12.082;2023-02-26T02:02:39;95830.56;;;9.93;93.01
62038;BME280;47991;42.974;12.082;2023-02-26T02:05:29;95824.58;;;9.93;93.44
62038;BME280;47991;42.974;12.082;2023-02-26T02:08:18;95819.20;;;9.91;92.88
62038;BME280;47991;42.974;12.082;2023-02-26T02:10:47;95814.05;;;9.91;92.87
62038;BME280;47991;42.974;12.082;2023-02-26T02:20:07;95805.71;;;9.89;93.41
62038;BME280;47991;42.974;12.082;2023-02-26T02:34:26;95791.74;;;9.86;93.79
62038;BME280;47991;42.974;12.082;2023-02-26T02:37:00;95789.18;;;9.88;93.32
62038;BME280;47991;42.974;12.082;2023-02-26T02:39:32;95789.81;;;9.89;93.27
62038;BME280;47991;42.974;12.082;2023-02-26T02:42:07;95783.59;;;9.90;93.58
62038;BME280;47991;42.974;12.082;2023-02-26T02:44:59;95779.45;;;9.88;93.43
62038;BME280;47991;42.974;12.082;2023-02-26T02:48:08;95779.45;;;9.88;92.90
62038;BME280;47991;42.974;12.082;2023-02-26T02:50:43;95775.85;;;9.87;93.53
62038;BME280;47991;42.974;12.082;2023-02-26T02:53:22;95770.81;;;9.85;93.57
62038;BME280;47991;42.974;12.082;2023-02-26T02:55:57;95772.64;;;9.84;93.30
62038;BME280;47991;42.974;12.082;2023-02-26T02:58:31;95771.11;;;9.83;93.56
62038;BME280;47991;42.974;12.082;2023-02-26T03:01:04;95770.16;;;9.81;94.18
62038;BME280;47991;42.974;12.082;2023-02-26T03:06:12;95761.99;;;9.82;93.78
62038;BME280;47991;42.974;12.082;2023-02-26T03:08:41;95762.28;;;9.83;93.45
62038;BME280;47991;42.974;12.082;2023-02-26T03:11:09;95760.62;;;9.81;93.50
62038;BME280;47991;42.974;12.082;2023-02-26T03:13:37;95760.83;;;9.81;94.18
62038;BME280;47991;42.974;12.082;2023-02-26T03:16:14;95756.64;;;9.80;93.96
62038;BME280;47991;42.974;12.082;2023-02-26T03:27:34;95758.07;;;9.77;95.48
62038;BME280;47991;42.974;12.082;2023-02-26T03:30:21;95757.48;;;9.78;94.52
62038;BME280;47991;42.974;12.082;2023-02-26T03:38:36;95757.96;;;9.79;94.42
62038;BME280;47991;42.974;12.082;2023-02-26T03:41:12;95756.73;;;9.78;94.33
62038;BME280;47991;42.974;12.082;2023-02-26T03:43:47;95753.04;;;9.78;94.67
62038;BME280;47991;42.974;12.082;2023-02-26T03:46:21;95758.05;;;9.77;94.78
62038;BME280;47991;42.974;12.082;2023-02-26T03:48:52;95756.08;;;9.75;94.83
62038;BME280;47991;42.974;12.082;2023-02-26T03:51:21;95756.23;;;9.75;94.77
62038;BME280;47991;42.974;12.082;2023-02-26T03:54:26;95751.80;;;9.72;95.12
62038;BME280;47991;42.974;12.082;2023-02-26T03:57:10;95753.27;;;9.71;96.05
62038;BME280;47991;42.974;12.082;2023-02-26T03:59:57;95753.73;;;9.72;94.87
62038;BME280;47991;42.974;12.082;2023-02-26T04:05:39;95748.16;;;9.71;95.84
62038;BME280;47991;42.974;12.082;2023-02-26T04:08:08;95747.95;;;9.71;95.91
62038;BME280;47991;42.974;12.082;2023-02-26T04:10:53;95744.12;;;9.70;96.24
62038;BME280;47991;42.974;12.082;2023-02-26T04:13:22;95743.75;;;9.71;96.26
62038;BME280;47991;42.974;12.082;2023-02-26T04:15:49;95740.44;;;9.70;96.05
62038;BME280;47991;42.974;12.082;2023-02-26T04:18:16;95740.77;;;9.70;96.44
62038;BME280;47991;42.974;12.082;2023-02-26T04:20:43;95737.60;;;9.70;96.37
62038;BME280;47991;42.974;12.082;2023-02-26T04:23:10;95736.59;;;9.69;96.41
62038;BME280;47991;42.974;12.082;2023-02-26T04:25:37;95736.17;;;9.71;95.85
62038;BME280;47991;42.974;12.082;2023-02-26T04:28:05;95732.14;;;9.70;96.08
62038;BME280;47991;42.974;12.082;2023-02-26T04:30:32;95728.69;;;9.69;96.37
62038;BME280;47991;42.974;12.082;2023-02-26T04:32:59;95728.84;;;9.69;96.54
62038;BME280;47991;42.974;12.082;2023-02-26T04:35:26;95725.48;;;9.70;96.02
62038;BME280;47991;42.974;12.082;2023-02-26T04:37:56;95728.71;;;9.69;96.78
62038;BME280;47991;42.974;12.082;2023-02-26T04:40:23;95721.83;;;9.68;96.43
62038;BME280;47991;42.974;12.082;2023-02-26T04:42:50;95720.83;;;9.68;96.72
62038;BME280;47991;42.974;12.082;2023-02-26T04:45:21;95718.53;;;9.68;97.02
62038;BME280;47991;42.974;12.082;2023-02-26T04:47:48;95718.88;;;9.68;96.55
62038;BME280;47991;42.974;12.082;2023-02-26T04:50:15;95715.70;;;9.68;97.32
62038;BME280;47991;42.974;12.082;2023-02-26T04:52:43;95715.70;;;9.68;96.59
62038;BME280;47991;42.974;12.082;2023-02-26T04:55:10;95713.39;;;9.68;96.17
62038;BME280;47991;42.974;12.082;2023-02-26T04:57:38;95702.00;;;9.67;96.94
62038;BME280;47991;42.974;12.082;2023-02-26T05:00:06;95701.94;;;9.68;96.48
62038;BME280;47991;42.974;12.082;2023-02-26T05:02:34;95700.18;;;9.68;96.63
62038;BME280;47991;42.974;12.082;2023-02-26T05:05:02;95699.75;;;9.69;95.75
62038;BME280;47991;42.974;12.082;2023-02-26T05:07:29;95699.90;;;9.69;95.92
62038;BME280;47991;42.974;12.082;2023-02-26T05:09:56;95697.65;;;9.69;96.45
62038;BME280;47991;42.974;12.082;2023-02-26T05:12:23;95691.31;;;9.68;95.62
62038;BME280;47991;42.974;12.082;2023-02-26T05:14:50;95692.04;;;9.68;96.32
62038;BME280;47991;42.974;12.082;2023-02-26T05:17:17;95689.42;;;9.68;96.51
62038;BME280;47991;42.974;12.082;2023-02-26T05:19:44;95689.05;;;9.68;96.53
62038;BME280;47991;42.974;12.082;2023-02-26T05:22:11;95685.90;;;9.67;96.54
62038;BME280;47991;42.974;12.082;2023-02-26T05:24:39;95681.84;;;9.67;96.26
62038;BME280;47991;42.974;12.082;2023-02-26T05:27:06;95681.80;;;9.68;96.11
62038;BME280;47991;42.974;12.082;2023-02-26T05:29:33;95678.27;;;9.68;96.17
62038;BME280;47991;42.974;12.082;2023-02-26T05:32:02;95677.66;;;9.69;95.37
62038;BME280;47991;42.974;12.082;2023-02-26T05:34:29;95674.86;;;9.69;96.09
62038;BME280;47991;42.974;12.082;2023-02-26T05:36:56;95672.90;;;9.69;96.39
62038;BME280;47991;42.974;12.082;2023-02-26T05:39:22;95668.77;;;9.68;96.23
62038;BME280;47991;42.974;12.082;2023-02-26T05:41:49;95669.16;;;9.67;96.91
62038;BME280;47991;42.974;12.082;2023-02-26T05:44:18;95668.27;;;9.67;96.59
62038;BME280;47991;42.974;12.082;2023-02-26T05:46:45;95664.91;;;9.67;96.35
62038;BME280;47991;42.974;12.082;2023-02-26T05:49:12;95663.86;;;9.67;96.65
62038;BME280;47991;42.974;12.082;2023-02-26T05:51:39;95661.77;;;9.67;96.34
62038;BME280;47991;42.974;12.082;2023-02-26T05:54:09;95656.64;;;9.67;96.23
62038;BME280;47991;42.974;12.082;2023-02-26T05:56:36;95660.33;;;9.67;95.85
62038;BME280;47991;42.974;12.082;2023-02-26T05:59:03;95655.89;;;9.68;95.71
62038;BME280;47991;42.974;12.082;2023-02-26T06:01:30;95657.60;;;9.68;96.07
62038;BME280;47991;42.974;12.082;2023-02-26T06:03:57;95657.09;;;9.68;95.96
62038;BME280;47991;42.974;12.082;2023-02-26T06:06:24;95657.14;;;9.67;96.06
62038;BME280;47991;42.974;12.082;2023-02-26T06:08:52;95660.12;;;9.68;95.90
62038;BME280;47991;42.974;12.082;2023-02-26T06:11:19;95658.73;;;9.67;96.15
62038;BME280;47991;42.974;12.082;2023-02-26T06:13:46;95654.96;;;9.68;96.05
62038;BME280;47991;42.974;12.082;2023-02-26T06:16:13;95657.77;;;9.69;96.24
62038;BME280;47991;42.974;12.082;2023-02-26T06:18:40;95660.38;;;9.70;95.50
62038;BME280;47991;42.974;12.082;2023-02-26T06:21:07;95660.59;;;9.69;96.63
62038;BME280;47991;42.974;12.082;2023-02-26T06:23:34;95662.89;;;9.69;96.50
62038;BME280;47991;42.974;12.082;2023-02-26T06:26:02;95662.37;;;9.68;96.46
62038;BME280;47991;42.974;12.082;2023-02-26T06:28:28;95665.42;;;9.71;95.86
62038;BME280;47991;42.974;12.082;2023-02-26T06:30:55;95663.48;;;9.70;96.44
62038;BME280;47991;42.974;12.082;2023-02-26T06:33:22;95658.81;;;9.72;95.95
62038;BME280;47991;42.974;12.082;2023-02-26T06:35:49;95659.66;;;9.72;96.26
62038;BME280;47991;42.974;12.082;2023-02-26T06:38:17;95665.58;;;9.74;96.53
62038;BME280;47991;42.974;12.082;2023-02-26T06:40:46;95658.12;;;9.75;96.28
62038;BME280;47991;42.974;12.082;2023-02-26T06:43:13;95660.60;;;9.75;96.54
62038;BME280;47991;42.974;12.082;2023-02-26T06:45:40;95664.42;;;9.76;96.99
62038;BME280;47991;42.974;12.082;2023-02-26T06:48:07;95662.13;;;9.76;96.51
62038;BME280;47991;42.974;12.082;2023-02-26T06:50:34;95662.74;;;9.78;95.54
62038;BME280;47991;42.974;12.082;2023-02-26T06:53:01;95660.91;;;9.78;96.17
62038;BME280;47991;42.974;12.082;2023-02-26T06:55:28;95661.98;;;9.78;96.45
62038;BME280;47991;42.974;12.082;2023-02-26T06:57:56;95665.65;;;9.79;96.59
62038;BME280;47991;42.974;12.082;2023-02-26T07:00:24;95663.70;;;9.79;96.28
62038;BME280;47991;42.974;12.082;2023-02-26T07:02:51;95666.85;;;9.80;95.90
62038;BME280;47991;42.974;12.082;2023-02-26T07:05:19;95667.02;;;9.80;96.26
62038;BME280;47991;42.974;12.082;2023-02-26T07:07:46;95665.93;;;9.77;97.25
62038;BME280;47991;42.974;12.082;2023-02-26T07:10:13;95663.69;;;9.76;96.72
62038;BME280;47991;42.974;12.082;2023-02-26T07:12:40;95669.67;;;9.77;96.83
62038;BME280;47991;42.974;12.082;2023-02-26T07:15:07;95664.39;;;9.77;97.30
62038;BME280;47991;42.974;12.082;2023-02-26T07:17:35;95667.94;;;9.76;97.46
62038;BME280;47991;42.974;12.082;2023-02-26T07:20:02;95667.27;;;9.75;97.16
62038;BME280;47991;42.974;12.082;2023-02-26T07:22:36;95664.57;;;9.76;96.43
62038;BME280;47991;42.974;12.082;2023-02-26T07:25:04;95660.40;;;9.75;97.59
62038;BME280;47991;42.974;12.082;2023-02-26T07:27:32;95659.69;;;9.75;96.31
62038;BME280;47991;42.974;12.082;2023-02-26T07:29:59;95657.63;;;9.74;96.88
62038;BME280;47991;42.974;12.082;2023-02-26T07:32:26;95660.38;;;9.75;96.30
62038;BME280;47991;42.974;12.082;2023-02-26T07:34:53;95658.67;;;9.75;96.50
62038;BME280;47991;42.974;12.082;2023-02-26T07:37:20;95654.10;;;9.74;97.08
62038;BME280;47991;42.974;12.082;2023-02-26T07:39:47;95655.29;;;9.75;96.24
62038;BME280;47991;42.974;12.082;2023-02-26T07:42:14;95654.56;;;9.75;96.65
62038;BME280;47991;42.974;12.082;2023-02-26T07:44:42;95656.60;;;9.77;96.52
62038;BME280;47991;42.974;12.082;2023-02-26T07:47:09;95658.13;;;9.78;97.27
62038;BME280;47991;42.974;12.082;2023-02-26T07:49:37;95659.55;;;9.78;97.21
62038;BME280;47991;42.974;12.082;2023-02-26T07:52:04;95663.02;;;9.79;97.41
62038;BME280;47991;42.974;12.082;2023-02-26T07:54:34;95660.45;;;9.80;96.66
62038;BME280;47991;42.974;12.082;2023-02-26T07:57:03;95660.15;;;9.82;96.50
62038;BME280;47991;42.974;12.082;2023-02-26T07:59:30;95661.19;;;9.83;96.89
62038;BME280;47991;42.974;12.082;2023-02-26T08:01:57;95660.33;;;9.82;96.66
62038;BME280;47991;42.974;12.082;2023-02-26T08:04:24;95662.96;;;9.83;96.10
62038;BME280;47991;42.974;12.082;2023-02-26T08:06:51;95661.77;;;9.82;95.95
62038;BME280;47991;42.974;12.082;2023-02-26T08:09:20;95662.39;;;9.83;95.71
62038;BME280;47991;42.974;12.082;2023-02-26T08:11:47;95663.41;;;9.81;96.47
62038;BME280;47991;42.974;12.082;2023-02-26T08:14:14;95664.88;;;9.80;96.54
62038;BME280;47991;42.974;12.082;2023-02-26T08:16:41;95663.65;;;9.80;95.88
62038;BME280;47991;42.974;12.082;2023-02-26T08:19:08;95663.31;;;9.77;95.72
62038;BME280;47991;42.974;12.082;2023-02-26T08:21:36;95664.71;;;9.77;95.47
62038;BME280;47991;42.974;12.082;2023-02-26T08:24:03;95664.44;;;9.79;95.64
62038;BME280;47991;42.974;12.082;2023-02-26T08:26:30;95666.32;;;9.79;95.43
62038;BME280;47991;42.974;12.082;2023-02-26T08:28:57;95662.77;;;9.80;94.97
62038;BME280;47991;42.974;12.082;2023-02-26T08:31:24;95668.39;;;9.80;94.44
62038;BME280;47991;42.974;12.082;2023-02-26T08:33:53;95668.98;;;9.79;94.99
62038;BME280;47991;42.974;12.082;2023-02-26T08:36:20;95670.82;;;9.81;95.30
62038;BME280;47991;42.974;12.082;2023-02-26T08:38:47;95671.77;;;9.83;95.06
62038;BME280;47991;42.974;12.082;2023-02-26T08:41:14;95674.09;;;9.86;95.37
62038;BME280;47991;42.974;12.082;2023-02-26T08:43:41;95678.77;;;9.87;95.26
62038;BME280;47991;42.974;12.082;2023-02-26T08:46:07;95680.52;;;9.87;95.56
62038;BME280;47991;42.974;12.082;2023-02-26T08:48:34;95678.30;;;9.89;95.16
62038;BME280;47991;42.974;12.082;2023-02-26T08:51:01;95677.46;;;9.85;97.34
62038;BME280;47991;42.974;12.082;2023-02-26T08:53:28;95678.60;;;9.84;98.42
62038;BME280;47991;42.974;12.082;2023-02-26T08:55:55;95682.16;;;9.86;97.47
62038;BME280;47991;42.974;12.082;2023-02-26T08:58:22;95677.34;;;9.87;97.30
62038;BME280;47991;42.974;12.082;2023-02-26T09:00:49;95681.25;;;9.90;97.23
62038;BME280;47991;42.974;12.082;2023-02-26T09:03:16;95682.38;;;9.88;97.36
62038;BME280;47991;42.974;12.082;2023-02-26T09:05:43;95677.93;;;9.89;97.31
62038;BME280;47991;42.974;12.082;2023-02-26T09:08:10;95681.68;;;9.88;97.62
62038;BME280;47991;42.974;12.082;2023-02-26T09:10:41;95683.85;;;9.94;97.47
62038;BME280;47991;42.974;12.082;2023-02-26T09:13:08;95690.08;;;9.99;97.32
62038;BME280;47991;42.974;12.082;2023-02-26T09:15:35;95694.27;;;10.00;97.21
62038;BME280;47991;42.974;12.082;2023-02-26T09:18:01;95699.39;;;9.99;97.07
62038;BME280;47991;42.974;12.082;2023-02-26T09:20:28;95710.37;;;9.93;99.01
62038;BME280;47991;42.974;12.082;2023-02-26T09:22:56;95714.61;;;9.75;96.49
62038;BME280;47991;42.974;12.082;2023-02-26T09:25:23;95721.55;;;9.40;94.25
62038;BME280;47991;42.974;12.082;2023-02-26T09:27:50;95723.09;;;9.21;94.44
62038;BME280;47991;42.974;12.082;2023-02-26T09:30:17;95722.45;;;8.88;92.72
62038;BME280;47991;42.974;12.082;2023-02-26T09:32:44;95724.85;;;8.63;92.13
62038;BME280;47991;42.974;12.082;2023-02-26T09:35:11;95726.65;;;8.39;91.76
62038;BME280;47991;42.974;12.082;2023-02-26T09:37:38;95727.63;;;8.19;92.29
62038;BME280;47991;42.974;12.082;2023-02-26T09:40:06;95738.90;;;7.85;91.85
62038;BME280;47991;42.974;12.082;2023-02-26T09:45:26;95751.00;;;7.63;93.44
62038;BME280;47991;42.974;12.082;2023-02-26T09:47:57;95758.17;;;7.46;93.63
62038;BME280;47991;42.974;12.082;2023-02-26T09:50:30;95758.99;;;7.40;94.65
62038;BME280;47991;42.974;12.082;2023-02-26T09:55:48;95763.66;;;7.49;94.44
62038;BME280;47991;42.974;12.082;2023-02-26T10:08:50;95780.31;;;7.28;92.77
62038;BME280;47991;42.974;12.082;2023-02-26T10:11:29;95776.88;;;7.19;92.07
62038;BME280;47991;42.974;12.082;2023-02-26T10:16:36;95769.59;;;7.09;92.37
62038;BME280;47991;42.974;12.082;2023-02-26T10:19:10;95770.56;;;7.07;92.61
62038;BME280;47991;42.974;12.082;2023-02-26T10:24:21;95778.44;;;6.97;93.05
62038;BME280;47991;42.974;12.082;2023-02-26T10:27:05;95784.45;;;7.04;93.15
62038;BME280;47991;42.974;12.082;2023-02-26T10:29:42;95785.70;;;7.10;92.76
62038;BME280;47991;42.974;12.082;2023-02-26T10:32:23;95798.02;;;7.14;92.12
62038;BME280;47991;42.974;12.082;2023-02-26T10:34:59;95801.81;;;7.12;92.10
62038;BME280;47991;42.974;12.082;2023-02-26T10:40:17;95816.14;;;7.09;91.87
62038;BME280;47991;42.974;12.082;2023-02-26T10:42:49;95818.65;;;7.13;91.66
62038;BME280;47991;42.974;12.082;2023-02-26T10:51:17;95819.25;;;6.75;91.89
62038;BME280;47991;42.974;12.082;2023-02-26T10:53:49;95816.97;;;6.76;92.00
62038;BME280;47991;42.974;12.082;2023-02-26T10:56:28;95817.86;;;6.76;91.94
62038;BME280;47991;42.974;12.082;2023-02-26T10:58:56;95818.23;;;6.71;91.90
62038;BME280;47991;42.974;12.082;2023-02-26T11:01:24;95818.52;;;6.65;92.13
62038;BME280;47991;42.974;12.082;2023-02-26T11:03:57;95819.39;;;6.65;92.06
62038;BME280;47991;42.974;12.082;2023-02-26T11:06:32;95821.91;;;6.67;91.82
62038;BME280;47991;42.974;12.082;2023-02-26T11:09:01;95821.23;;;6.63;91.85
62038;BME280;47991;42.974;12.082;2023-02-26T11:11:38;95822.50;;;6.62;91.73
62038;BME280;47991;42.974;12.082;2023-02-26T11:14:06;95826.48;;;6.59;91.96
62038;BME280;47991;42.974;12.082;2023-02-26T11:16:35;95819.84;;;6.62;91.76
62038;BME280;47991;42.974;12.082;2023-02-26T11:19:07;95823.82;;;6.64;91.50
62038;BME280;47991;42.974;12.082;2023-02-26T11:21:40;95826.94;;;6.60;91.92
62038;BME280;47991;42.974;12.082;2023-02-26T11:24:12;95826.03;;;6.61;91.91
62038;BME280;47991;42.974;12.082;2023-02-26T11:26:45;95834.75;;;6.67;91.55
62038;BME280;47991;42.974;12.082;2023-02-26T11:29:20;95837.30;;;6.72;91.55
62038;BME280;47991;42.974;12.082;2023-02-26T11:31:54;95841.55;;;6.72;91.05
62038;BME280;47991;42.974;12.082;2023-02-26T11:34:24;95850.70;;;6.71;90.98
62038;BME280;47991;42.974;12.082;2023-02-26T11:36:54;95849.90;;;6.69;90.70
62038;BME280;47991;42.974;12.082;2023-02-26T11:39:32;95858.86;;;6.69;90.98
62038;BME280;47991;42.974;12.082;2023-02-26T11:42:00;95858.55;;;6.60;90.63
62038;BME280;47991;42.974;12.082;2023-02-26T11:47:08;95859.34;;;6.46;90.34
62038;BME280;47991;42.974;12.082;2023-02-26T11:49:41;95854.68;;;6.44;91.16
62038;BME280;47991;42.974;12.082;2023-02-26T11:55:18;95854.18;;;6.48;90.99
62038;BME280;47991;42.974;12.082;2023-02-26T11:57:50;95857.52;;;6.51;91.30
62038;BME280;47991;42.974;12.082;2023-02-26T12:00:34;95851.92;;;6.55;91.02
62038;BME280;47991;42.974;12.082;2023-02-26T12:03:05;95849.38;;;6.57;90.60
62038;BME280;47991;42.974;12.082;2023-02-26T12:05:35;95854.98;;;6.62;90.98
62038;BME280;47991;42.974;12.082;2023-02-26T12:08:24;95856.23;;;6.62;90.24
62038;BME280;47991;42.974;12.082;2023-02-26T12:22:05;95874.78;;;6.75;89.95
62038;BME280;47991;42.974;12.082;2023-02-26T12:24:56;95874.63;;;6.66;90.04
62038;BME280;47991;42.974;12.082;2023-02-26T12:41:07;95880.14;;;6.52;89.92
62038;BME280;47991;42.974;12.082;2023-02-26T12:43:49;95881.42;;;6.42;89.43
62038;BME280;47991;42.974;12.082;2023-02-26T12:54:59;95912.33;;;6.55;89.38
62038;BME280;47991;42.974;12.082;2023-02-26T12:57:46;95913.42;;;6.54;89.94
62038;BME280;47991;42.974;12.082;2023-02-26T13:03:21;95923.45;;;6.58;89.65
62038;BME280;47991;42.974;12.082;2023-02-26T13:19:40;95919.25;;;6.49;88.49
62038;BME280;47991;42.974;12.082;2023-02-26T13:22:20;95924.05;;;6.52;89.09
62038;BME280;47991;42.974;12.082;2023-02-26T13:27:31;95940.41;;;6.47;88.56
62038;BME280;47991;42.974;12.082;2023-02-26T13:33:06;95952.59;;;6.50;89.02
62038;BME280;47991;42.974;12.082;2023-02-26T13:35:41;95952.71;;;6.33;88.04
62038;BME280;47991;42.974;12.082;2023-02-26T13:38:44;95950.55;;;6.35;89.25
62038;BME280;47991;42.974;12.082;2023-02-26T13:41:21;95949.23;;;6.38;88.94
62038;BME280;47991;42.974;12.082;2023-02-26T13:46:35;95955.03;;;6.24;89.91
62038;BME280;47991;42.974;12.082;2023-02-26T13:49:19;95953.83;;;6.19;89.83
62038;BME280;47991;42.974;12.082;2023-02-26T13:51:52;95956.10;;;6.10;89.50
62038;BME280;47991;42.974;12.082;2023-02-26T13:59:47;95962.73;;;6.11;89.77
62038;BME280;47991;42.974;12.082;2023-02-26T14:08:25;95975.60;;;5.95;90.12
62038;BME280;47991;42.974;12.082;2023-02-26T14:10:32;95983.57;;;5.98;89.85
62038;BME280;47991;42.974;12.082;2023-02-26T14:15:41;95992.39;;;6.02;89.71
62038;BME280;47991;42.974;12.082;2023-02-26T14:18:50;95995.95;;;6.01;89.91
62038;BME280;47991;42.974;12.082;2023-02-26T14:24:16;95989.94;;;6.07;89.80
62038;BME280;47991;42.974;12.082;2023-02-26T14:33:06;95995.75;;;6.06;89.85
62038;BME280;47991;42.974;12.082;2023-02-26T14:35:48;95997.59;;;6.03;90.06
62038;BME280;47991;42.974;12.082;2023-02-26T14:38:24;96000.89;;;5.95;88.70
62038;BME280;47991;42.974;12.082;2023-02-26T14:41:17;96001.00;;;5.91;89.20
62038;BME280;47991;42.974;12.082;2023-02-26T14:43:51;96004.84;;;5.73;89.59
62038;BME280;47991;42.974;12.082;2023-02-26T14:47:02;96014.45;;;5.70;90.50
62038;BME280;47991;42.974;12.082;2023-02-26T14:49:38;96017.48;;;5.68;90.34
62038;BME280;47991;42.974;12.082;2023-02-26T15:04:14;96039.96;;;5.38;92.29
62038;BME280;47991;42.974;12.082;2023-02-26T15:15:02;96054.42;;;5.30;92.54
62038;BME280;47991;42.974;12.082;2023-02-26T15:24:01;96062.67;;;5.30;92.32
62038;BME280;47991;42.974;12.082;2023-02-26T15:26:32;96065.50;;;5.29;92.35
62038;BME280;47991;42.974;12.082;2023-02-26T15:29:14;96075.31;;;5.24;92.15
62038;BME280;47991;42.974;12.082;2023-02-26T15:32:01;96074.66;;;5.22;92.19
62038;BME280;47991;42.974;12.082;2023-02-26T15:34:31;96080.23;;;5.18;92.63
62038;BME280;47991;42.974;12.082;2023-02-26T15:36:59;96085.75;;;5.21;92.27
